createdAt,value
2023-05-04T00:02:09.668Z,99242.38
2023-05-04T00:04:42.960Z,99239.64
2023-05-04T00:07:15.301Z,99240.20
2023-05-04T00:09:47.875Z,99239.98
2023-05-04T00:12:20.421Z,99236.86
2023-05-04T00:14:53.000Z,99235.10
2023-05-04T00:17:25.343Z,99232.66
2023-05-04T00:19:57.608Z,99229.70
2023-05-04T00:22:31.670Z,99228.52
2023-05-04T00:25:03.838Z,99227.48
2023-05-04T00:27:36.293Z,99231.48
2023-05-04T00:30:11.314Z,99231.25
2023-05-04T00:32:43.526Z,99224.47
2023-05-04T00:35:15.877Z,99226.17
2023-05-04T00:37:48.138Z,99223.65
2023-05-04T00:40:21.147Z,99221.44
2023-05-04T00:42:53.287Z,99215.48
2023-05-04T00:45:26.016Z,99216.23
2023-05-04T00:47:59.165Z,99210.29
2023-05-04T00:50:31.794Z,99212.66
2023-05-04T00:53:08.778Z,99216.67
2023-05-04T00:55:42.056Z,99215.48
2023-05-04T00:58:14.359Z,99218.02
2023-05-04T01:00:46.635Z,99213.83
2023-05-04T01:03:19.881Z,99219.89
2023-05-04T01:06:02.724Z,99223.00
2023-05-04T01:08:37.270Z,99219.56
2023-05-04T01:11:17.301Z,99217.61
2023-05-04T01:13:51.356Z,99212.34
2023-05-04T01:16:23.785Z,99216.35
2023-05-04T01:18:57.446Z,99215.89
2023-05-04T01:21:33.168Z,99209.33
2023-05-04T01:24:08.378Z,99213.60
2023-05-04T01:26:44.764Z,99211.73
2023-05-04T01:29:26.448Z,99206.95
2023-05-04T01:32:01.330Z,99203.37
2023-05-04T01:34:33.684Z,99206.69
2023-05-04T01:37:08.235Z,99210.31
2023-05-04T01:39:41.690Z,99211.55
2023-05-04T01:42:14.263Z,99205.02
2023-05-04T01:44:48.402Z,99197.29
2023-05-04T01:47:22.812Z,99199.55
2023-05-04T01:49:55.292Z,99196.02
2023-05-04T01:52:28.919Z,99196.63
2023-05-04T01:55:01.087Z,99200.05
2023-05-04T01:57:33.224Z,99200.57
2023-05-04T02:00:06.240Z,99200.63
2023-05-04T02:02:50.947Z,99203.11
2023-05-04T02:05:24.377Z,99202.95
2023-05-04T02:07:56.573Z,99197.81
2023-05-04T02:10:28.908Z,99200.44
2023-05-04T02:13:02.106Z,99197.39
2023-05-04T02:15:34.967Z,99196.96
2023-05-04T02:18:07.311Z,99196.19
2023-05-04T02:20:39.460Z,99198.36
2023-05-04T02:23:11.700Z,99197.38
2023-05-04T02:25:43.955Z,99197.48
2023-05-04T02:28:16.265Z,99200.58
2023-05-04T02:30:48.754Z,99198.50
2023-05-04T02:33:23.512Z,99194.06
2023-05-04T02:35:55.729Z,99195.50
2023-05-04T02:38:28.917Z,99193.52
2023-05-04T02:41:02.120Z,99193.48
2023-05-04T02:43:34.294Z,99195.61
2023-05-04T02:46:09.257Z,99195.05
2023-05-04T02:48:41.395Z,99195.38
2023-05-04T02:51:13.613Z,99201.91
2023-05-04T02:53:45.804Z,99197.48
2023-05-04T02:56:17.973Z,99198.07
2023-05-04T02:58:50.203Z,99199.74
2023-05-04T03:01:22.515Z,99203.86
2023-05-04T03:03:55.415Z,99202.98
2023-05-04T03:06:28.019Z,99196.85
2023-05-04T03:09:00.738Z,99198.59
2023-05-04T03:11:32.915Z,99205.06
2023-05-04T03:14:05.170Z,99203.54
2023-05-04T03:16:37.647Z,99205.15
2023-05-04T03:19:10.453Z,99204.70
2023-05-04T03:21:43.179Z,99204.94
2023-05-04T03:24:15.934Z,99210.19
2023-05-04T03:26:48.503Z,99205.58
2023-05-04T03:29:20.872Z,99199.84
2023-05-04T03:31:53.741Z,99194.14
2023-05-04T03:34:28.306Z,99201.06
2023-05-04T03:37:04.425Z,99200.95
2023-05-04T03:39:36.609Z,99199.77
2023-05-04T03:42:09.216Z,99200.89
2023-05-04T03:44:44.164Z,99203.26
2023-05-04T03:47:16.353Z,99199.39
2023-05-04T03:49:48.936Z,99198.34
2023-05-04T03:52:21.120Z,99203.69
2023-05-04T03:54:53.466Z,99202.73
2023-05-04T03:57:25.891Z,99206.19
2023-05-04T03:59:59.659Z,99205.21
2023-05-04T04:02:33.017Z,99207.70
2023-05-04T04:05:06.560Z,99211.49
2023-05-04T04:07:39.716Z,99211.35
2023-05-04T04:10:13.262Z,99212.39
2023-05-04T04:12:45.593Z,99211.07
2023-05-04T04:15:18.732Z,99209.22
2023-05-04T04:17:51.044Z,99211.11
2023-05-04T04:20:23.239Z,99213.76
2023-05-04T04:22:55.400Z,99216.20
2023-05-04T04:25:27.571Z,99219.38
2023-05-04T04:27:59.783Z,99219.78
2023-05-04T04:30:31.970Z,99219.74
2023-05-04T04:33:04.369Z,99221.48
2023-05-04T04:35:37.106Z,99222.52
2023-05-04T04:38:09.882Z,99221.86
2023-05-04T04:40:42.142Z,99222.23
2023-05-04T04:43:14.331Z,99221.88
2023-05-04T04:45:46.855Z,99219.27
2023-05-04T04:48:21.490Z,99222.70
2023-05-04T04:50:53.961Z,99220.81
2023-05-04T04:53:26.099Z,99220.28
2023-05-04T04:55:58.262Z,99217.44
2023-05-04T04:58:30.258Z,99222.38
2023-05-04T05:01:04.535Z,99220.80
2023-05-04T05:03:36.758Z,99221.20
2023-05-04T05:06:08.877Z,99219.98
2023-05-04T05:08:41.842Z,99219.98
2023-05-04T05:11:13.935Z,99222.73
2023-05-04T05:13:45.959Z,99221.90
2023-05-04T05:16:18.212Z,99226.98
2023-05-04T05:18:50.821Z,99225.17
2023-05-04T05:21:23.304Z,99223.02
2023-05-04T05:23:55.413Z,99223.34
2023-05-04T05:26:28.002Z,99220.08
2023-05-04T05:29:00.141Z,99214.65
2023-05-04T05:31:33.206Z,99217.70
2023-05-04T05:34:08.337Z,99214.50
2023-05-04T05:36:40.524Z,99212.98
2023-05-04T05:39:12.631Z,99210.98
2023-05-04T05:41:45.027Z,99208.52
2023-05-04T05:44:17.112Z,99209.37
2023-05-04T05:46:51.884Z,99208.27
2023-05-04T05:49:24.351Z,99206.65
2023-05-04T05:51:56.495Z,99204.66
2023-05-04T05:54:30.577Z,99205.74
2023-05-04T05:57:03.344Z,99203.91
2023-05-04T05:59:35.359Z,99199.33
2023-05-04T06:02:07.900Z,99197.63
2023-05-04T06:04:42.897Z,99194.22
2023-05-04T06:07:15.021Z,99188.16
2023-05-04T06:09:47.038Z,99189.45
2023-05-04T06:12:19.017Z,99182.66
2023-05-04T06:14:52.401Z,99178.34
2023-05-04T06:17:24.481Z,99177.22
2023-05-04T06:19:56.828Z,99177.76
2023-05-04T06:22:28.978Z,99176.77
2023-05-04T06:25:05.312Z,99176.59
2023-05-04T06:27:40.201Z,99174.25
2023-05-04T06:30:14.131Z,99171.45
2023-05-04T06:32:47.913Z,99170.23
2023-05-04T06:35:20.328Z,99164.20
2023-05-04T06:37:52.435Z,99160.40
2023-05-04T06:40:25.564Z,99157.45
2023-05-04T06:42:57.892Z,99152.73
2023-05-04T06:45:30.114Z,99149.85
2023-05-04T06:48:02.482Z,99146.91
2023-05-04T06:50:35.957Z,99138.23
2023-05-04T06:53:10.236Z,99141.92
2023-05-04T06:55:43.350Z,99132.94
2023-05-04T06:58:18.137Z,99137.12
2023-05-04T07:00:50.222Z,99122.02
2023-05-04T07:03:22.410Z,99125.30
2023-05-04T07:05:54.538Z,99111.36
2023-05-04T07:08:26.865Z,99111.31
2023-05-04T07:10:58.928Z,99107.37
2023-05-04T07:13:31.292Z,99106.16
2023-05-04T07:16:03.983Z,99106.33
2023-05-04T07:18:36.577Z,99098.01
2023-05-04T07:21:26.660Z,99098.96
2023-05-04T07:24:00.093Z,99094.04
2023-05-04T07:26:32.309Z,99094.00
2023-05-04T07:29:04.522Z,99080.05
2023-05-04T07:31:36.981Z,99068.34
2023-05-04T07:34:09.016Z,99059.52
2023-05-04T07:36:43.167Z,99058.10
2023-05-04T07:39:16.695Z,99048.02
2023-05-04T07:41:51.699Z,99037.23
2023-05-04T07:44:23.694Z,99036.39
2023-05-04T07:46:55.779Z,99033.79
2023-05-04T07:49:27.964Z,99022.40
2023-05-04T07:52:00.167Z,99013.02
2023-05-04T07:54:32.238Z,99020.30
2023-05-04T07:57:06.108Z,99022.52
2023-05-04T07:59:38.277Z,99017.08
2023-05-04T08:02:10.520Z,98988.23
2023-05-04T08:04:42.711Z,98995.91
2023-05-04T08:07:16.548Z,98987.19
2023-05-04T08:09:48.679Z,98972.21
2023-05-04T08:12:20.814Z,98960.18
2023-05-04T08:14:52.842Z,98921.09
2023-05-04T08:17:25.212Z,98928.86
2023-05-04T08:19:57.409Z,98945.59
2023-05-04T08:22:30.442Z,98942.09
2023-05-04T08:25:02.741Z,98929.32
2023-05-04T08:27:35.371Z,98935.90
2023-05-04T08:30:09.563Z,98929.55
2023-05-04T08:32:41.660Z,98928.71
2023-05-04T08:35:14.452Z,98920.69
2023-05-04T08:37:46.576Z,98922.92
2023-05-04T08:40:19.431Z,98913.21
2023-05-04T08:42:52.634Z,98905.08
2023-05-04T08:45:25.783Z,98903.14
2023-05-04T08:47:57.855Z,98908.23
2023-05-04T08:50:30.105Z,98903.58
2023-05-04T08:53:04.130Z,98900.20
2023-05-04T08:55:41.461Z,98899.30
2023-05-04T08:58:15.598Z,98901.16
2023-05-04T09:00:48.639Z,98893.27
2023-05-04T09:03:21.613Z,98893.83
2023-05-04T09:05:54.662Z,98889.20
2023-05-04T09:08:26.897Z,98880.93
2023-05-04T09:10:59.800Z,98883.03
2023-05-04T09:13:34.110Z,98863.41
2023-05-04T09:16:08.082Z,98863.35
2023-05-04T09:18:42.728Z,98864.94
2023-05-04T09:21:15.358Z,98856.41
2023-05-04T09:23:52.472Z,98852.92
2023-05-04T09:26:31.786Z,98857.30
2023-05-04T09:29:15.614Z,98844.36
2023-05-04T09:31:50.318Z,98842.65
2023-05-04T09:34:22.570Z,98839.31
2023-05-04T09:37:06.637Z,98832.16
2023-05-04T09:39:38.770Z,98834.84
2023-05-04T09:42:21.114Z,98832.19
2023-05-04T09:45:08.320Z,98835.13
2023-05-04T09:47:42.264Z,98824.28
2023-05-04T09:50:21.068Z,98820.43
2023-05-04T09:52:54.662Z,98821.66
2023-05-04T09:55:28.260Z,98813.55
2023-05-04T09:58:02.207Z,98805.65
2023-05-04T10:00:34.550Z,98801.11
2023-05-04T10:03:08.770Z,98801.98
2023-05-04T10:05:44.006Z,98800.49
2023-05-04T10:08:16.927Z,98790.84
2023-05-04T10:10:49.469Z,98789.28
2023-05-04T10:13:21.543Z,98784.87
2023-05-04T10:16:07.471Z,98782.23
2023-05-04T10:18:54.119Z,98771.02
2023-05-04T10:21:38.256Z,98763.59
2023-05-04T10:24:33.354Z,98766.64
2023-05-04T10:27:10.411Z,98763.48
2023-05-04T10:29:43.656Z,98761.71
2023-05-04T10:32:23.096Z,98749.13
2023-05-04T10:35:05.722Z,98744.27
2023-05-04T10:37:38.714Z,98747.85
2023-05-04T10:40:12.543Z,98746.14
2023-05-04T10:42:45.536Z,98740.06
2023-05-04T10:45:18.872Z,98739.50
2023-05-04T10:47:59.910Z,98735.14
2023-05-04T10:50:42.139Z,98738.65
2023-05-04T10:53:15.712Z,98732.46
2023-05-04T10:55:49.728Z,98723.55
2023-05-04T10:58:30.624Z,98726.85
2023-05-04T11:01:12.675Z,98719.63
2023-05-04T11:03:45.080Z,98719.33
2023-05-04T11:06:23.938Z,98712.52
2023-05-04T11:09:06.389Z,98709.13
2023-05-04T11:11:40.807Z,98711.79
2023-05-04T11:14:21.970Z,98705.90
2023-05-04T11:16:54.152Z,98705.63
2023-05-04T11:19:26.211Z,98701.89
2023-05-04T11:21:58.247Z,98704.20
2023-05-04T11:24:37.858Z,98713.06
2023-05-04T11:27:10.326Z,98716.40
2023-05-04T11:29:42.406Z,98723.52
2023-05-04T11:32:18.133Z,98724.73
2023-05-04T11:34:50.306Z,98725.59
2023-05-04T11:37:23.359Z,98724.98
2023-05-04T11:39:56.140Z,98732.72
2023-05-04T11:42:28.790Z,98718.62
2023-05-04T11:45:01.357Z,98725.01
2023-05-04T11:47:33.585Z,98732.01
2023-05-04T11:50:08.165Z,98732.09
2023-05-04T11:52:41.591Z,98725.77
2023-05-04T11:55:25.568Z,98729.37
2023-05-04T11:58:02.267Z,98720.27
2023-05-04T12:00:42.308Z,98716.20
2023-05-04T12:03:16.514Z,98715.53
2023-05-04T12:05:51.569Z,98721.12
2023-05-04T12:08:30.426Z,98719.71
2023-05-04T12:11:21.733Z,98711.55
2023-05-04T12:14:05.290Z,98712.48
2023-05-04T12:16:39.349Z,98708.81
2023-05-04T12:19:13.087Z,98713.52
2023-05-04T12:21:53.777Z,98712.81
2023-05-04T12:24:29.049Z,98702.33
2023-05-04T12:27:02.130Z,98692.52
2023-05-04T12:29:34.398Z,98705.99
2023-05-04T12:32:08.930Z,98713.36
2023-05-04T12:34:41.454Z,98710.69
2023-05-04T12:37:13.668Z,98713.73
2023-05-04T12:39:47.140Z,98702.86
2023-05-04T12:42:19.280Z,98696.15
2023-05-04T12:44:51.458Z,98698.08
2023-05-04T12:47:24.857Z,98697.52
2023-05-04T12:49:57.118Z,98701.05
2023-05-04T12:52:32.162Z,98700.23
2023-05-04T12:55:04.585Z,98692.70
2023-05-04T12:57:37.653Z,98690.45
2023-05-04T13:00:12.038Z,98693.63
2023-05-04T13:02:44.570Z,98676.02
2023-05-04T13:05:18.481Z,98672.29
2023-05-04T13:07:52.697Z,98672.64
2023-05-04T13:10:25.729Z,98680.30
2023-05-04T13:12:58.333Z,98679.45
2023-05-04T13:15:30.725Z,98675.20
2023-05-04T13:18:03.225Z,98669.98
2023-05-04T13:20:36.299Z,98667.52
2023-05-04T13:23:08.801Z,98662.92
2023-05-04T13:25:41.279Z,98664.96
2023-05-04T13:28:13.514Z,98660.98
2023-05-04T13:30:46.039Z,98666.31
2023-05-04T13:33:28.620Z,98662.16
2023-05-04T13:36:03.366Z,98658.82
2023-05-04T13:38:35.519Z,98652.64
2023-05-04T13:41:08.129Z,98650.36
2023-05-04T13:43:40.538Z,98648.56
2023-05-04T13:46:14.656Z,98640.58
2023-05-04T13:48:46.915Z,98640.91
2023-05-04T13:51:19.492Z,98639.23
2023-05-04T13:53:51.749Z,98637.71
2023-05-04T13:56:26.826Z,98634.48
2023-05-04T13:58:59.020Z,98637.09
2023-05-04T14:01:31.423Z,98637.77
2023-05-04T14:04:04.057Z,98633.30
2023-05-04T14:06:36.190Z,98629.33
2023-05-04T14:09:08.597Z,98631.63
2023-05-04T14:11:41.471Z,98621.55
2023-05-04T14:14:13.952Z,98618.28
2023-05-04T14:16:46.574Z,98617.95
2023-05-04T14:19:25.588Z,98617.86
2023-05-04T14:21:58.158Z,98621.28
2023-05-04T14:24:30.735Z,98614.03
2023-05-04T14:27:02.862Z,98611.77
2023-05-04T14:29:39.572Z,98608.68
2023-05-04T14:32:14.492Z,98609.14
2023-05-04T14:34:52.100Z,98612.73
2023-05-04T14:37:24.257Z,98616.70
2023-05-04T14:39:56.412Z,98617.07
2023-05-04T14:42:28.611Z,98609.88
2023-05-04T14:45:02.302Z,98607.85
2023-05-04T14:47:40.139Z,98599.26
2023-05-04T14:50:16.004Z,98596.10
2023-05-04T14:52:48.687Z,98597.70
2023-05-04T14:55:20.938Z,98596.23
2023-05-04T14:57:53.002Z,98589.41
2023-05-04T15:00:25.653Z,98586.66
2023-05-04T15:02:58.151Z,98588.84
2023-05-04T15:05:32.627Z,98594.06
2023-05-04T15:08:05.035Z,98593.63
2023-05-04T15:10:37.440Z,98599.14
2023-05-04T15:13:09.707Z,98593.32
2023-05-04T15:15:43.129Z,98593.52
2023-05-04T15:18:15.450Z,98591.73
2023-05-04T15:20:49.998Z,98590.56
2023-05-04T15:23:22.281Z,98589.98
2023-05-04T15:25:54.541Z,98594.47
2023-05-04T15:28:26.708Z,98594.98
2023-05-04T15:31:00.662Z,98595.26
2023-05-04T15:33:33.873Z,98594.08
2023-05-04T15:36:09.250Z,98592.87
2023-05-04T15:38:41.509Z,98594.27
2023-05-04T15:41:14.353Z,98592.70
2023-05-04T15:43:46.526Z,98588.20
2023-05-04T15:46:19.846Z,98585.80
2023-05-04T15:48:56.768Z,98580.73
2023-05-04T15:51:29.793Z,98581.52
2023-05-04T15:54:04.102Z,98578.65
2023-05-04T15:56:36.546Z,98579.15
2023-05-04T15:59:08.795Z,98582.84
2023-05-04T16:01:41.426Z,98581.82
2023-05-04T16:04:13.956Z,98584.41
2023-05-04T16:06:48.843Z,98583.85
2023-05-04T16:09:21.057Z,98579.66
2023-05-04T16:11:53.154Z,98579.35
2023-05-04T16:14:25.649Z,98579.61
2023-05-04T16:16:57.955Z,98580.17
2023-05-04T16:19:30.261Z,98582.45
2023-05-04T16:22:03.282Z,98579.73
2023-05-04T16:24:36.350Z,98581.45
2023-05-04T16:27:08.845Z,98580.29
2023-05-04T16:29:41.160Z,98584.27
2023-05-04T16:32:13.281Z,98585.66
2023-05-04T16:34:48.056Z,98580.48
2023-05-04T16:37:23.321Z,98575.80
2023-05-04T16:39:56.713Z,98574.82
2023-05-04T16:42:28.976Z,98573.42
2023-05-04T16:45:01.097Z,98578.44
2023-05-04T16:47:33.331Z,98579.27
2023-05-04T16:50:06.824Z,98581.12
2023-05-04T16:52:39.892Z,98584.48
2023-05-04T16:55:12.895Z,98592.69
2023-05-04T16:57:45.143Z,98596.29
2023-05-04T17:00:18.495Z,98602.06
2023-05-04T17:02:50.935Z,98613.85
2023-05-04T17:05:23.162Z,98616.41
2023-05-04T17:07:55.458Z,98623.30
2023-05-04T17:10:30.267Z,98628.54
2023-05-04T17:13:02.976Z,98631.65
2023-05-04T17:15:35.580Z,98636.80
2023-05-04T17:18:08.081Z,98640.02
2023-05-04T17:20:40.377Z,98641.43
2023-05-04T17:23:12.467Z,98646.23
2023-05-04T17:25:46.043Z,98648.74
2023-05-04T17:28:18.336Z,98652.73
2023-05-04T17:30:50.534Z,98651.08
2023-05-04T17:33:22.798Z,98647.49
2023-05-04T17:35:55.020Z,98647.00
2023-05-04T17:38:27.257Z,98652.14
2023-05-04T17:40:59.670Z,98663.64
2023-05-04T17:43:31.893Z,98670.64
2023-05-04T17:46:04.548Z,98672.89
2023-05-04T17:48:36.930Z,98680.20
2023-05-04T17:51:12.196Z,98686.09
2023-05-04T17:53:44.426Z,98693.11
2023-05-04T17:56:20.427Z,98702.80
2023-05-04T17:58:53.130Z,98713.83
2023-05-04T18:01:25.347Z,98727.00
2023-05-04T18:03:58.259Z,98728.83
2023-05-04T18:06:30.386Z,98737.02
2023-05-04T18:09:06.235Z,98746.41
2023-05-04T18:11:41.807Z,98757.50
2023-05-04T18:14:14.102Z,98769.63
2023-05-04T18:16:46.689Z,98775.12
2023-05-04T18:19:24.869Z,98781.86
2023-05-04T18:21:56.913Z,98796.02
2023-05-04T18:24:29.161Z,98801.73
2023-05-04T18:27:05.191Z,98805.95
2023-05-04T18:29:37.377Z,98810.94
2023-05-04T18:32:10.845Z,98816.09
2023-05-04T18:34:43.683Z,98828.20
2023-05-04T18:37:16.817Z,98831.94
2023-05-04T18:39:48.947Z,98833.08
2023-05-04T18:42:21.353Z,98837.73
2023-05-04T18:44:55.226Z,98836.58
2023-05-04T18:47:27.491Z,98843.89
2023-05-04T18:50:01.009Z,98848.54
2023-05-04T18:52:34.856Z,98846.67
2023-05-04T18:55:08.041Z,98852.34
2023-05-04T18:57:40.253Z,98854.95
2023-05-04T19:00:14.227Z,98864.63
2023-05-04T19:02:46.833Z,98867.95
2023-05-04T19:05:32.037Z,98871.10
2023-05-04T19:08:04.338Z,98878.75
2023-05-04T19:10:36.607Z,98880.92
2023-05-04T19:13:09.315Z,98886.30
2023-05-04T19:15:41.482Z,98890.60
2023-05-04T19:18:13.654Z,98890.70
2023-05-04T19:20:45.975Z,98897.13
2023-05-04T19:23:18.346Z,98895.19
2023-05-04T19:25:50.988Z,98898.05
2023-05-04T19:28:25.498Z,98904.96
2023-05-04T19:30:58.623Z,98903.13
2023-05-04T19:33:44.637Z,98904.34
2023-05-04T19:36:20.415Z,98904.23
2023-05-04T19:38:52.906Z,98907.23
2023-05-04T19:41:27.482Z,98908.75
2023-05-04T19:43:59.618Z,98911.41
2023-05-04T19:46:32.061Z,98912.86
2023-05-04T19:49:04.556Z,98912.09
2023-05-04T19:51:36.749Z,98910.79
2023-05-04T19:54:11.155Z,98913.56
2023-05-04T19:56:43.883Z,98910.00
2023-05-04T19:59:16.087Z,98914.64
2023-05-04T20:01:48.373Z,98911.65
2023-05-04T20:04:22.978Z,98912.77
2023-05-04T20:06:55.181Z,98909.10
2023-05-04T20:09:28.991Z,98911.81
2023-05-04T20:12:03.449Z,98911.89
2023-05-04T20:14:36.236Z,98912.02
2023-05-04T20:17:08.477Z,98914.27
2023-05-04T20:19:42.962Z,98916.80
2023-05-04T20:22:15.452Z,98912.35
2023-05-04T20:24:52.635Z,98915.71
2023-05-04T20:27:24.799Z,98919.66
2023-05-04T20:29:56.905Z,98912.08
2023-05-04T20:32:30.578Z,98918.58
2023-05-04T20:35:02.891Z,98926.48
2023-05-04T20:37:35.138Z,98921.59
2023-05-04T20:40:09.305Z,98923.22
2023-05-04T20:42:44.161Z,98921.57
2023-05-04T20:45:25.687Z,98923.92
2023-05-04T20:47:58.186Z,98919.91
2023-05-04T20:50:30.630Z,98921.69
2023-05-04T20:53:03.086Z,98928.33
2023-05-04T20:55:36.169Z,98931.03
2023-05-04T20:58:08.285Z,98935.74
2023-05-04T21:00:40.527Z,98934.02
2023-05-04T21:03:13.032Z,98930.08
2023-05-04T21:05:45.418Z,98921.42
2023-05-04T21:08:19.951Z,98914.98
2023-05-04T21:10:53.144Z,98913.35
2023-05-04T21:13:25.495Z,98911.61
2023-05-04T21:15:59.607Z,98914.54
2023-05-04T21:18:31.940Z,98912.90
2023-05-04T21:21:05.710Z,98909.79
2023-05-04T21:23:37.879Z,98904.25
2023-05-04T21:26:13.620Z,98905.98
2023-05-04T21:28:46.565Z,98906.41
2023-05-04T21:31:18.946Z,98895.55
2023-05-04T21:33:52.211Z,98888.77
2023-05-04T21:36:24.539Z,98884.54
2023-05-04T21:38:56.815Z,98883.55
2023-05-04T21:41:29.245Z,98883.33
2023-05-04T21:44:04.605Z,98879.73
2023-05-04T21:46:42.271Z,98883.05
2023-05-04T21:49:14.533Z,98878.73
2023-05-04T21:51:46.800Z,98882.91
2023-05-04T21:54:18.997Z,98881.54
2023-05-04T21:56:51.103Z,98884.44
2023-05-04T21:59:23.267Z,98885.75
2023-05-04T22:01:55.405Z,98887.09
2023-05-04T22:04:27.634Z,98895.41
2023-05-04T22:07:00.059Z,98895.30
2023-05-04T22:09:32.462Z,98897.34
2023-05-04T22:12:05.621Z,98896.71
2023-05-04T22:14:38.563Z,98897.25
2023-05-04T22:17:11.601Z,98896.86
2023-05-04T22:19:46.315Z,98892.50
2023-05-04T22:22:18.632Z,98884.77
2023-05-04T22:24:51.003Z,98868.93
2023-05-04T22:27:23.160Z,98864.39
2023-05-04T22:29:55.656Z,98856.98
2023-05-04T22:32:27.853Z,98863.43
2023-05-04T22:35:00.445Z,98864.59
2023-05-04T22:37:32.679Z,98867.58
2023-05-04T22:40:07.504Z,98865.02
2023-05-04T22:42:39.878Z,98866.61
2023-05-04T22:45:15.039Z,98869.26
2023-05-04T22:47:47.385Z,98862.77
2023-05-04T22:50:19.754Z,98861.50
2023-05-04T22:52:51.985Z,98859.38
2023-05-04T22:55:24.225Z,98860.36
2023-05-04T22:57:56.739Z,98854.55
2023-05-04T23:00:28.974Z,98854.11
2023-05-04T23:03:01.589Z,98859.12
2023-05-04T23:05:33.911Z,98857.98
2023-05-04T23:08:07.674Z,98851.59
2023-05-04T23:10:45.059Z,98853.60
2023-05-04T23:13:17.256Z,98854.51
2023-05-04T23:15:49.538Z,98849.50
2023-05-04T23:18:22.089Z,98849.71
2023-05-04T23:20:54.293Z,98848.64
2023-05-04T23:23:26.633Z,98842.32
2023-05-04T23:25:58.868Z,98844.09
2023-05-04T23:28:31.641Z,98844.33
2023-05-04T23:31:04.018Z,98841.73
2023-05-04T23:33:36.141Z,98836.54
2023-05-04T23:36:08.823Z,98833.86
2023-05-04T23:38:41.030Z,98834.25
2023-05-04T23:41:13.491Z,98834.32
2023-05-04T23:43:46.817Z,98837.75
2023-05-04T23:46:18.939Z,98834.63
2023-05-04T23:48:51.227Z,98836.76
2023-05-04T23:51:23.350Z,98838.54
2023-05-04T23:53:55.810Z,98839.21
2023-05-04T23:56:28.154Z,98841.55
2023-05-04T23:59:00.287Z,98837.55
